sensor_id;sensor_type;location;lat;lon;timestamp;temperature;humidity
4725;DHT22;2376;53.544;10.226;2024-02-23T00:01:53;10.60;99.90
4725;DHT22;2376;53.544;10.226;2024-02-23T00:04:20;10.60;99.90
4725;DHT22;2376;53.544;10.226;2024-02-23T00:06:46;10.60;99.90
4725;DHT22;2376;53.544;10.226;2024-02-23T00:09:13;10.60;99.90
4725;DHT22;2376;53.544;10.226;2024-02-23T00:11:41;10.60;99.90
4725;DHT22;2376;53.544;10.226;2024-02-23T00:14:11;10.50;99.90
4725;DHT22;2376;53.544;10.226;2024-02-23T00:16:39;10.50;99.90
4725;DHT22;2376;53.544;10.226;2024-02-23T00:19:07;10.40;99.90
4725;DHT22;2376;53.544;10.226;2024-02-23T00:21:34;10.40;99.90
4725;DHT22;2376;53.544;10.226;2024-02-23T00:24:01;10.40;99.90
4725;DHT22;2376;53.544;10.226;2024-02-23T00:26:27;10.40;99.90
4725;DHT22;2376;53.544;10.226;2024-02-23T00:28:56;10.40;99.90
4725;DHT22;2376;53.544;10.226;2024-02-23T00:31:23;10.30;99.90
4725;DHT22;2376;53.544;10.226;2024-02-23T00:33:49;10.20;99.90
4725;DHT22;2376;53.544;10.226;2024-02-23T00:36:16;10.20;99.90
4725;DHT22;2376;53.544;10.226;2024-02-23T00:38:43;10.10;99.90
4725;DHT22;2376;53.544;10.226;2024-02-23T00:41:09;10.10;99.90
4725;DHT22;2376;53.544;10.226;2024-02-23T00:43:39;10.10;99.90
4725;DHT22;2376;53.544;10.226;2024-02-23T00:46:07;10.00;99.90
4725;DHT22;2376;53.544;10.226;2024-02-23T00:48:34;10.00;99.90
4725;DHT22;2376;53.544;10.226;2024-02-23T00:51:02;10.00;99.90
4725;DHT22;2376;53.544;10.226;2024-02-23T00:53:30;10.00;99.90
4725;DHT22;2376;53.544;10.226;2024-02-23T00:55:57;9.90;99.90
4725;DHT22;2376;53.544;10.226;2024-02-23T00:58:23;9.90;99.90
4725;DHT22;2376;53.544;10.226;2024-02-23T01:00:50;9.90;99.90
4725;DHT22;2376;53.544;10.226;2024-02-23T01:03:18;9.90;99.90
4725;DHT22;2376;53.544;10.226;2024-02-23T01:05:45;9.80;99.90
4725;DHT22;2376;53.544;10.226;2024-02-23T01:08:12;9.70;99.90
4725;DHT22;2376;53.544;10.226;2024-02-23T01:10:38;9.80;99.90
4725;DHT22;2376;53.544;10.226;2024-02-23T01:13:05;9.80;99.90
4725;DHT22;2376;53.544;10.226;2024-02-23T01:15:32;9.70;99.90
4725;DHT22;2376;53.544;10.226;2024-02-23T01:17:59;9.60;99.90
4725;DHT22;2376;53.544;10.226;2024-02-23T01:20:27;9.40;99.90
4725;DHT22;2376;53.544;10.226;2024-02-23T01:22:54;9.30;99.90
4725;DHT22;2376;53.544;10.226;2024-02-23T01:25:21;9.10;99.90
4725;DHT22;2376;53.544;10.226;2024-02-23T01:27:47;8.90;99.90
4725;DHT22;2376;53.544;10.226;2024-02-23T01:30:15;8.80;99.90
4725;DHT22;2376;53.544;10.226;2024-02-23T01:32:41;8.70;99.90
4725;DHT22;2376;53.544;10.226;2024-02-23T01:35:08;8.60;99.90
4725;DHT22;2376;53.544;10.226;2024-02-23T01:37:36;8.50;99.90
4725;DHT22;2376;53.544;10.226;2024-02-23T01:40:04;8.40;99.90
4725;DHT22;2376;53.544;10.226;2024-02-23T01:42:31;8.40;99.90
4725;DHT22;2376;53.544;10.226;2024-02-23T01:44:58;8.30;99.90
4725;DHT22;2376;53.544;10.226;2024-02-23T01:47:27;8.30;99.90
4725;DHT22;2376;53.544;10.226;2024-02-23T01:49:55;8.20;99.90
4725;DHT22;2376;53.544;10.226;2024-02-23T01:52:22;8.20;99.90
4725;DHT22;2376;53.544;10.226;2024-02-23T01:54:50;8.10;99.90
4725;DHT22;2376;53.544;10.226;2024-02-23T01:57:17;8.10;99.90
4725;DHT22;2376;53.544;10.226;2024-02-23T01:59:44;8.00;99.90
4725;DHT22;2376;53.544;10.226;2024-02-23T02:02:11;8.00;99.90
4725;DHT22;2376;53.544;10.226;2024-02-23T02:04:38;8.00;99.90
4725;DHT22;2376;53.544;10.226;2024-02-23T02:07:05;7.90;99.90
4725;DHT22;2376;53.544;10.226;2024-02-23T02:09:32;7.90;99.90
4725;DHT22;2376;53.544;10.226;2024-02-23T02:12:00;7.90;99.90
4725;DHT22;2376;53.544;10.226;2024-02-23T02:14:26;7.90;99.90
4725;DHT22;2376;53.544;10.226;2024-02-23T02:16:55;7.90;99.90
4725;DHT22;2376;53.544;10.226;2024-02-23T02:19:22;7.90;99.90
4725;DHT22;2376;53.544;10.226;2024-02-23T02:21:47;7.90;99.90
4725;DHT22;2376;53.544;10.226;2024-02-23T02:24:14;7.80;99.90
4725;DHT22;2376;53.544;10.226;2024-02-23T02:26:41;7.80;99.90
4725;DHT22;2376;53.544;10.226;2024-02-23T02:29:09;7.80;99.90
4725;DHT22;2376;53.544;10.226;2024-02-23T02:31:36;7.80;99.90
4725;DHT22;2376;53.544;10.226;2024-02-23T02:34:03;7.70;99.90
4725;DHT22;2376;53.544;10.226;2024-02-23T02:36:30;7.70;99.90
4725;DHT22;2376;53.544;10.226;2024-02-23T02:38:57;7.70;99.90
4725;DHT22;2376;53.544;10.226;2024-02-23T02:41:24;7.70;99.90
4725;DHT22;2376;53.544;10.226;2024-02-23T02:43:54;7.60;99.90
4725;DHT22;2376;53.544;10.226;2024-02-23T02:46:22;7.60;99.90
4725;DHT22;2376;53.544;10.226;2024-02-23T02:48:48;7.60;99.90
4725;DHT22;2376;53.544;10.226;2024-02-23T02:51:15;7.60;99.90
4725;DHT22;2376;53.544;10.226;2024-02-23T02:53:42;7.50;99.90
4725;DHT22;2376;53.544;10.226;2024-02-23T02:56:08;7.50;99.90
4725;DHT22;2376;53.544;10.226;2024-02-23T02:58:35;7.50;99.90
4725;DHT22;2376;53.544;10.226;2024-02-23T03:01:02;7.40;99.90
4725;DHT22;2376;53.544;10.226;2024-02-23T03:03:30;7.40;99.90
4725;DHT22;2376;53.544;10.226;2024-02-23T03:05:57;7.40;99.90
4725;DHT22;2376;53.544;10.226;2024-02-23T03:08:23;7.30;99.90
4725;DHT22;2376;53.544;10.226;2024-02-23T03:10:50;7.30;99.90
4725;DHT22;2376;53.544;10.226;2024-02-23T03:13:17;7.30;99.90
4725;DHT22;2376;53.544;10.226;2024-02-23T03:15:43;7.20;99.90
4725;DHT22;2376;53.544;10.226;2024-02-23T03:18:10;7.20;99.90
4725;DHT22;2376;53.544;10.226;2024-02-23T03:20:38;7.20;99.90
4725;DHT22;2376;53.544;10.226;2024-02-23T03:23:04;7.20;99.90
4725;DHT22;2376;53.544;10.226;2024-02-23T03:25:31;7.20;99.90
4725;DHT22;2376;53.544;10.226;2024-02-23T03:27:58;7.20;99.90
4725;DHT22;2376;53.544;10.226;2024-02-23T03:30:24;7.10;99.90
4725;DHT22;2376;53.544;10.226;2024-02-23T03:32:51;7.10;99.90
4725;DHT22;2376;53.544;10.226;2024-02-23T03:35:18;7.00;99.90
4725;DHT22;2376;53.544;10.226;2024-02-23T03:37:46;7.00;99.90
4725;DHT22;2376;53.544;10.226;2024-02-23T03:40:12;7.00;99.90
4725;DHT22;2376;53.544;10.226;2024-02-23T03:42:39;6.90;99.90
4725;DHT22;2376;53.544;10.226;2024-02-23T03:45:06;6.90;99.90
4725;DHT22;2376;53.544;10.226;2024-02-23T03:47:32;6.90;99.90
4725;DHT22;2376;53.544;10.226;2024-02-23T03:49:59;6.90;99.90
4725;DHT22;2376;53.544;10.226;2024-02-23T03:52:26;6.90;99.90
4725;DHT22;2376;53.544;10.226;2024-02-23T03:54:53;6.90;99.90
4725;DHT22;2376;53.544;10.226;2024-02-23T03:57:20;6.80;99.90
4725;DHT22;2376;53.544;10.226;2024-02-23T03:59:53;6.80;99.90
4725;DHT22;2376;53.544;10.226;2024-02-23T04:02:20;6.80;99.90
4725;DHT22;2376;53.544;10.226;2024-02-23T04:04:47;6.70;99.90
4725;DHT22;2376;53.544;10.226;2024-02-23T04:07:14;6.70;99.90
4725;DHT22;2376;53.544;10.226;2024-02-23T04:09:41;6.70;99.90
4725;DHT22;2376;53.544;10.226;2024-02-23T04:12:09;6.70;99.90
4725;DHT22;2376;53.544;10.226;2024-02-23T04:14:35;6.60;99.90
4725;DHT22;2376;53.544;10.226;2024-02-23T04:17:02;6.60;99.90
4725;DHT22;2376;53.544;10.226;2024-02-23T04:19:29;6.60;99.90
4725;DHT22;2376;53.544;10.226;2024-02-23T04:21:56;6.60;99.90
4725;DHT22;2376;53.544;10.226;2024-02-23T04:24:22;6.50;99.90
4725;DHT22;2376;53.544;10.226;2024-02-23T04:26:49;6.50;99.90
4725;DHT22;2376;53.544;10.226;2024-02-23T04:29:17;6.50;99.90
4725;DHT22;2376;53.544;10.226;2024-02-23T04:31:43;6.50;99.90
4725;DHT22;2376;53.544;10.226;2024-02-23T04:34:10;6.40;99.90
4725;DHT22;2376;53.544;10.226;2024-02-23T04:36:37;6.40;99.90
4725;DHT22;2376;53.544;10.226;2024-02-23T04:39:03;6.40;99.90
4725;DHT22;2376;53.544;10.226;2024-02-23T04:41:30;6.40;99.90
4725;DHT22;2376;53.544;10.226;2024-02-23T04:43:57;6.40;99.90
4725;DHT22;2376;53.544;10.226;2024-02-23T04:46:26;6.40;99.90
4725;DHT22;2376;53.544;10.226;2024-02-23T04:48:53;6.40;99.90
4725;DHT22;2376;53.544;10.226;2024-02-23T04:51:20;6.40;99.90
4725;DHT22;2376;53.544;10.226;2024-02-23T04:53:48;6.40;99.90
4725;DHT22;2376;53.544;10.226;2024-02-23T04:56:14;6.40;99.90
4725;DHT22;2376;53.544;10.226;2024-02-23T04:58:42;6.40;99.90
4725;DHT22;2376;53.544;10.226;2024-02-23T05:01:09;6.40;99.90
4725;DHT22;2376;53.544;10.226;2024-02-23T05:03:37;6.40;99.90
4725;DHT22;2376;53.544;10.226;2024-02-23T05:06:04;6.40;99.90
4725;DHT22;2376;53.544;10.226;2024-02-23T05:08:31;6.40;99.90
4725;DHT22;2376;53.544;10.226;2024-02-23T05:10:58;6.40;99.90
4725;DHT22;2376;53.544;10.226;2024-02-23T05:13:24;6.40;99.90
4725;DHT22;2376;53.544;10.226;2024-02-23T05:15:54;6.40;99.90
4725;DHT22;2376;53.544;10.226;2024-02-23T05:18:21;6.40;99.90
4725;DHT22;2376;53.544;10.226;2024-02-23T05:20:49;6.40;99.90
4725;DHT22;2376;53.544;10.226;2024-02-23T05:23:15;6.40;99.90
4725;DHT22;2376;53.544;10.226;2024-02-23T05:25:42;6.30;99.90
4725;DHT22;2376;53.544;10.226;2024-02-23T05:28:09;6.30;99.90
4725;DHT22;2376;53.544;10.226;2024-02-23T05:30:36;6.30;99.90
4725;DHT22;2376;53.544;10.226;2024-02-23T05:33:02;6.30;99.90
4725;DHT22;2376;53.544;10.226;2024-02-23T05:35:30;6.30;99.90
4725;DHT22;2376;53.544;10.226;2024-02-23T05:37:58;6.20;99.90
4725;DHT22;2376;53.544;10.226;2024-02-23T05:40:25;6.20;99.90
4725;DHT22;2376;53.544;10.226;2024-02-23T05:42:51;6.10;99.90
4725;DHT22;2376;53.544;10.226;2024-02-23T05:45:18;6.10;99.90
4725;DHT22;2376;53.544;10.226;2024-02-23T05:47:45;6.10;99.90
4725;DHT22;2376;53.544;10.226;2024-02-23T05:50:12;6.10;99.90
4725;DHT22;2376;53.544;10.226;2024-02-23T05:52:38;6.10;99.90
4725;DHT22;2376;53.544;10.226;2024-02-23T05:55:07;6.10;99.90
4725;DHT22;2376;53.544;10.226;2024-02-23T05:57:34;6.10;99.90
4725;DHT22;2376;53.544;10.226;2024-02-23T06:00:01;6.00;99.90
4725;DHT22;2376;53.544;10.226;2024-02-23T06:02:28;6.10;99.90
4725;DHT22;2376;53.544;10.226;2024-02-23T06:04:54;6.00;99.90
4725;DHT22;2376;53.544;10.226;2024-02-23T06:07:21;6.00;99.90
4725;DHT22;2376;53.544;10.226;2024-02-23T06:09:54;6.00;99.90
4725;DHT22;2376;53.544;10.226;2024-02-23T06:12:22;6.00;99.90
4725;DHT22;2376;53.544;10.226;2024-02-23T06:17:16;6.00;99.90
4725;DHT22;2376;53.544;10.226;2024-02-23T06:19:43;6.00;99.90
4725;DHT22;2376;53.544;10.226;2024-02-23T06:22:10;6.00;99.90
4725;DHT22;2376;53.544;10.226;2024-02-23T06:24:37;6.00;99.90
4725;DHT22;2376;53.544;10.226;2024-02-23T06:27:04;6.00;99.90
4725;DHT22;2376;53.544;10.226;2024-02-23T06:29:32;6.00;99.90
4725;DHT22;2376;53.544;10.226;2024-02-23T06:31:58;6.00;99.90
4725;DHT22;2376;53.544;10.226;2024-02-23T06:34:28;6.00;99.90
4725;DHT22;2376;53.544;10.226;2024-02-23T06:36:55;6.00;99.90
4725;DHT22;2376;53.544;10.226;2024-02-23T06:39:21;6.00;99.90
4725;DHT22;2376;53.544;10.226;2024-02-23T06:41:48;5.90;99.90
4725;DHT22;2376;53.544;10.226;2024-02-23T06:44:15;5.90;99.90
4725;DHT22;2376;53.544;10.226;2024-02-23T06:46:43;5.90;99.90
4725;DHT22;2376;53.544;10.226;2024-02-23T06:49:10;5.90;99.90
4725;DHT22;2376;53.544;10.226;2024-02-23T06:51:36;5.90;99.90
4725;DHT22;2376;53.544;10.226;2024-02-23T06:54:06;5.90;99.90
4725;DHT22;2376;53.544;10.226;2024-02-23T06:56:33;6.00;99.90
4725;DHT22;2376;53.544;10.226;2024-02-23T06:59:00;6.00;99.90
4725;DHT22;2376;53.544;10.226;2024-02-23T07:01:27;5.90;99.90
4725;DHT22;2376;53.544;10.226;2024-02-23T07:03:55;5.90;99.90
4725;DHT22;2376;53.544;10.226;2024-02-23T07:06:21;6.00;99.90
4725;DHT22;2376;53.544;10.226;2024-02-23T07:08:48;6.00;99.90
4725;DHT22;2376;53.544;10.226;2024-02-23T07:11:15;6.00;99.90
4725;DHT22;2376;53.544;10.226;2024-02-23T07:13:42;6.00;99.90
4725;DHT22;2376;53.544;10.226;2024-02-23T07:16:09;6.00;99.90
4725;DHT22;2376;53.544;10.226;2024-02-23T07:18:36;6.00;99.90
4725;DHT22;2376;53.544;10.226;2024-02-23T07:21:04;6.00;99.90
4725;DHT22;2376;53.544;10.226;2024-02-23T07:23:31;6.10;99.90
4725;DHT22;2376;53.544;10.226;2024-02-23T07:25:57;6.10;99.90
4725;DHT22;2376;53.544;10.226;2024-02-23T07:28:24;6.10;99.90
4725;DHT22;2376;53.544;10.226;2024-02-23T07:30:50;6.10;99.90
4725;DHT22;2376;53.544;10.226;2024-02-23T07:33:18;6.10;99.90
4725;DHT22;2376;53.544;10.226;2024-02-23T07:35:45;6.20;99.90
4725;DHT22;2376;53.544;10.226;2024-02-23T07:38:13;6.20;99.90
4725;DHT22;2376;53.544;10.226;2024-02-23T07:40:39;6.30;99.90
4725;DHT22;2376;53.544;10.226;2024-02-23T07:43:06;6.30;99.90
4725;DHT22;2376;53.544;10.226;2024-02-23T07:45:33;6.30;99.90
4725;DHT22;2376;53.544;10.226;2024-02-23T07:48:00;6.30;99.90
4725;DHT22;2376;53.544;10.226;2024-02-23T07:50:27;6.40;99.90
4725;DHT22;2376;53.544;10.226;2024-02-23T07:52:54;6.40;99.90
4725;DHT22;2376;53.544;10.226;2024-02-23T07:55:22;6.50;99.90
4725;DHT22;2376;53.544;10.226;2024-02-23T07:57:48;6.50;99.90
4725;DHT22;2376;53.544;10.226;2024-02-23T08:00:16;6.60;99.90
4725;DHT22;2376;53.544;10.226;2024-02-23T08:02:42;6.60;99.90
4725;DHT22;2376;53.544;10.226;2024-02-23T08:05:09;6.70;99.90
4725;DHT22;2376;53.544;10.226;2024-02-23T08:07:36;6.70;99.90
4725;DHT22;2376;53.544;10.226;2024-02-23T08:10:04;6.70;99.90
4725;DHT22;2376;53.544;10.226;2024-02-23T08:12:34;6.80;99.90
4725;DHT22;2376;53.544;10.226;2024-02-23T08:15:00;6.80;99.90
4725;DHT22;2376;53.544;10.226;2024-02-23T08:17:27;6.80;99.90
4725;DHT22;2376;53.544;10.226;2024-02-23T08:19:54;6.90;99.90
4725;DHT22;2376;53.544;10.226;2024-02-23T08:22:20;6.90;99.90
4725;DHT22;2376;53.544;10.226;2024-02-23T08:24:48;6.90;99.90
4725;DHT22;2376;53.544;10.226;2024-02-23T08:27:15;6.90;99.90
4725;DHT22;2376;53.544;10.226;2024-02-23T08:29:43;6.90;99.90
4725;DHT22;2376;53.544;10.226;2024-02-23T08:32:10;6.90;99.90
4725;DHT22;2376;53.544;10.226;2024-02-23T08:34:36;7.00;99.90
4725;DHT22;2376;53.544;10.226;2024-02-23T08:37:03;7.00;99.90
4725;DHT22;2376;53.544;10.226;2024-02-23T08:39:30;7.10;99.90
4725;DHT22;2376;53.544;10.226;2024-02-23T08:41:57;7.10;99.90
4725;DHT22;2376;53.544;10.226;2024-02-23T08:44:24;7.10;99.90
4725;DHT22;2376;53.544;10.226;2024-02-23T08:46:52;7.10;99.90
4725;DHT22;2376;53.544;10.226;2024-02-23T08:49:18;7.20;99.90
4725;DHT22;2376;53.544;10.226;2024-02-23T08:51:45;7.30;99.90
4725;DHT22;2376;53.544;10.226;2024-02-23T08:54:12;7.40;99.90
4725;DHT22;2376;53.544;10.226;2024-02-23T08:56:39;7.40;99.90
4725;DHT22;2376;53.544;10.226;2024-02-23T08:59:07;7.40;99.90
4725;DHT22;2376;53.544;10.226;2024-02-23T09:01:34;7.40;99.90
4725;DHT22;2376;53.544;10.226;2024-02-23T09:04:02;7.50;99.90
4725;DHT22;2376;53.544;10.226;2024-02-23T09:06:29;7.60;99.90
4725;DHT22;2376;53.544;10.226;2024-02-23T09:08:56;7.60;99.90
4725;DHT22;2376;53.544;10.226;2024-02-23T09:11:23;7.60;99.90
4725;DHT22;2376;53.544;10.226;2024-02-23T09:13:50;7.60;99.90
4725;DHT22;2376;53.544;10.226;2024-02-23T09:16:16;7.60;99.90
4725;DHT22;2376;53.544;10.226;2024-02-23T09:18:44;7.70;99.90
4725;DHT22;2376;53.544;10.226;2024-02-23T09:21:12;7.70;99.90
4725;DHT22;2376;53.544;10.226;2024-02-23T09:23:39;7.70;99.90
4725;DHT22;2376;53.544;10.226;2024-02-23T09:26:09;7.80;99.90
4725;DHT22;2376;53.544;10.226;2024-02-23T09:28:36;7.80;99.90
4725;DHT22;2376;53.544;10.226;2024-02-23T09:31:03;7.80;99.90
4725;DHT22;2376;53.544;10.226;2024-02-23T09:33:30;7.80;99.90
4725;DHT22;2376;53.544;10.226;2024-02-23T09:35:57;7.90;99.90
4725;DHT22;2376;53.544;10.226;2024-02-23T09:38:25;7.90;99.90
4725;DHT22;2376;53.544;10.226;2024-02-23T09:40:52;7.90;99.90
4725;DHT22;2376;53.544;10.226;2024-02-23T09:43:20;8.00;99.90
4725;DHT22;2376;53.544;10.226;2024-02-23T09:45:47;8.00;99.90
4725;DHT22;2376;53.544;10.226;2024-02-23T09:48:18;8.00;99.90
4725;DHT22;2376;53.544;10.226;2024-02-23T09:50:45;8.10;99.90
4725;DHT22;2376;53.544;10.226;2024-02-23T09:53:13;8.10;99.90
4725;DHT22;2376;53.544;10.226;2024-02-23T09:55:43;8.10;99.90
4725;DHT22;2376;53.544;10.226;2024-02-23T09:58:12;8.10;99.90
4725;DHT22;2376;53.544;10.226;2024-02-23T10:00:42;8.20;99.90
4725;DHT22;2376;53.544;10.226;2024-02-23T10:03:09;8.20;99.90
4725;DHT22;2376;53.544;10.226;2024-02-23T10:05:36;8.30;99.90
4725;DHT22;2376;53.544;10.226;2024-02-23T10:08:04;8.30;99.90
4725;DHT22;2376;53.544;10.226;2024-02-23T10:10:32;8.40;99.90
4725;DHT22;2376;53.544;10.226;2024-02-23T10:13:01;8.40;99.90
4725;DHT22;2376;53.544;10.226;2024-02-23T10:15:29;8.50;99.90
4725;DHT22;2376;53.544;10.226;2024-02-23T10:17:56;8.60;99.90
4725;DHT22;2376;53.544;10.226;2024-02-23T10:20:23;8.60;99.90
4725;DHT22;2376;53.544;10.226;2024-02-23T10:22:50;8.60;99.90
4725;DHT22;2376;53.544;10.226;2024-02-23T10:25:19;8.60;99.90
4725;DHT22;2376;53.544;10.226;2024-02-23T10:27:45;8.70;99.90
4725;DHT22;2376;53.544;10.226;2024-02-23T10:30:14;8.70;99.90
4725;DHT22;2376;53.544;10.226;2024-02-23T10:32:41;8.70;99.90
4725;DHT22;2376;53.544;10.226;2024-02-23T10:35:11;8.80;99.90
4725;DHT22;2376;53.544;10.226;2024-02-23T10:37:42;8.90;99.90
4725;DHT22;2376;53.544;10.226;2024-02-23T10:40:11;9.00;99.90
4725;DHT22;2376;53.544;10.226;2024-02-23T10:42:39;9.00;99.90
4725;DHT22;2376;53.544;10.226;2024-02-23T10:45:08;9.00;99.90
4725;DHT22;2376;53.544;10.226;2024-02-23T10:47:36;9.00;99.90
4725;DHT22;2376;53.544;10.226;2024-02-23T10:50:04;9.00;99.90
4725;DHT22;2376;53.544;10.226;2024-02-23T10:52:33;9.10;99.90
4725;DHT22;2376;53.544;10.226;2024-02-23T10:55:00;9.10;99.90
4725;DHT22;2376;53.544;10.226;2024-02-23T10:57:30;9.10;99.90
4725;DHT22;2376;53.544;10.226;2024-02-23T10:59:57;9.20;99.90
4725;DHT22;2376;53.544;10.226;2024-02-23T11:02:25;9.10;99.90
4725;DHT22;2376;53.544;10.226;2024-02-23T11:04:57;9.20;99.90
4725;DHT22;2376;53.544;10.226;2024-02-23T11:07:25;9.20;99.90
4725;DHT22;2376;53.544;10.226;2024-02-23T11:09:53;9.20;99.90
4725;DHT22;2376;53.544;10.226;2024-02-23T11:12:23;9.20;99.90
4725;DHT22;2376;53.544;10.226;2024-02-23T11:14:50;9.20;99.90
4725;DHT22;2376;53.544;10.226;2024-02-23T11:17:18;9.20;99.90
4725;DHT22;2376;53.544;10.226;2024-02-23T11:19:48;9.20;99.90
4725;DHT22;2376;53.544;10.226;2024-02-23T11:22:24;9.20;99.90
4725;DHT22;2376;53.544;10.226;2024-02-23T11:24:59;9.20;99.90
4725;DHT22;2376;53.544;10.226;2024-02-23T11:27:30;9.20;99.90
4725;DHT22;2376;53.544;10.226;2024-02-23T11:30:02;9.30;99.90
4725;DHT22;2376;53.544;10.226;2024-02-23T11:32:37;9.30;99.90
4725;DHT22;2376;53.544;10.226;2024-02-23T11:35:06;9.30;99.90
4725;DHT22;2376;53.544;10.226;2024-02-23T11:37:44;9.30;99.90
4725;DHT22;2376;53.544;10.226;2024-02-23T11:40:12;9.30;99.90
4725;DHT22;2376;53.544;10.226;2024-02-23T11:42:40;9.30;99.90
4725;DHT22;2376;53.544;10.226;2024-02-23T11:45:08;9.30;99.90
4725;DHT22;2376;53.544;10.226;2024-02-23T11:47:34;9.30;99.90
4725;DHT22;2376;53.544;10.226;2024-02-23T11:50:02;9.30;99.90
4725;DHT22;2376;53.544;10.226;2024-02-23T11:52:29;9.30;99.90
4725;DHT22;2376;53.544;10.226;2024-02-23T11:54:58;9.30;99.90
4725;DHT22;2376;53.544;10.226;2024-02-23T11:57:25;9.30;99.90
4725;DHT22;2376;53.544;10.226;2024-02-23T11:59:52;9.30;99.90
4725;DHT22;2376;53.544;10.226;2024-02-23T12:02:18;9.30;99.90
4725;DHT22;2376;53.544;10.226;2024-02-23T12:04:45;9.40;99.90
4725;DHT22;2376;53.544;10.226;2024-02-23T12:07:12;9.40;99.90
4725;DHT22;2376;53.544;10.226;2024-02-23T12:09:39;9.50;99.90
4725;DHT22;2376;53.544;10.226;2024-02-23T12:12:10;9.50;99.90
4725;DHT22;2376;53.544;10.226;2024-02-23T12:14:37;9.40;99.90
4725;DHT22;2376;53.544;10.226;2024-02-23T12:17:03;9.40;99.90
4725;DHT22;2376;53.544;10.226;2024-02-23T12:19:32;9.40;99.90
4725;DHT22;2376;53.544;10.226;2024-02-23T12:22:00;9.40;99.90
4725;DHT22;2376;53.544;10.226;2024-02-23T12:24:26;9.30;99.90
4725;DHT22;2376;53.544;10.226;2024-02-23T12:26:54;9.30;99.90
4725;DHT22;2376;53.544;10.226;2024-02-23T12:29:23;9.30;99.90
4725;DHT22;2376;53.544;10.226;2024-02-23T12:31:50;9.30;99.90
4725;DHT22;2376;53.544;10.226;2024-02-23T12:34:17;9.40;99.90
4725;DHT22;2376;53.544;10.226;2024-02-23T12:36:45;9.40;99.90
4725;DHT22;2376;53.544;10.226;2024-02-23T12:39:12;9.40;99.90
4725;DHT22;2376;53.544;10.226;2024-02-23T12:41:39;9.30;99.90
4725;DHT22;2376;53.544;10.226;2024-02-23T12:44:05;9.40;99.90
4725;DHT22;2376;53.544;10.226;2024-02-23T12:46:34;9.40;99.90
4725;DHT22;2376;53.544;10.226;2024-02-23T12:49:00;9.40;99.90
4725;DHT22;2376;53.544;10.226;2024-02-23T12:51:27;9.40;99.90
4725;DHT22;2376;53.544;10.226;2024-02-23T12:53:53;9.50;99.90
4725;DHT22;2376;53.544;10.226;2024-02-23T12:56:20;9.50;99.90
4725;DHT22;2376;53.544;10.226;2024-02-23T12:58:47;9.50;99.90
4725;DHT22;2376;53.544;10.226;2024-02-23T13:01:13;9.50;99.90
4725;DHT22;2376;53.544;10.226;2024-02-23T13:03:42;9.60;99.90
4725;DHT22;2376;53.544;10.226;2024-02-23T13:06:09;9.60;99.90
4725;DHT22;2376;53.544;10.226;2024-02-23T13:08:36;9.60;99.90
4725;DHT22;2376;53.544;10.226;2024-02-23T13:11:16;9.50;99.90
4725;DHT22;2376;53.544;10.226;2024-02-23T13:13:44;9.50;99.90
4725;DHT22;2376;53.544;10.226;2024-02-23T13:16:11;9.50;99.90
4725;DHT22;2376;53.544;10.226;2024-02-23T13:18:41;9.50;99.90
4725;DHT22;2376;53.544;10.226;2024-02-23T13:21:09;9.60;99.90
4725;DHT22;2376;53.544;10.226;2024-02-23T13:23:36;9.50;99.90
4725;DHT22;2376;53.544;10.226;2024-02-23T13:28:35;9.60;99.90
4725;DHT22;2376;53.544;10.226;2024-02-23T13:31:03;9.60;99.90
4725;DHT22;2376;53.544;10.226;2024-02-23T13:33:29;9.60;99.90
4725;DHT22;2376;53.544;10.226;2024-02-23T13:35:58;9.70;99.90
4725;DHT22;2376;53.544;10.226;2024-02-23T13:38:24;9.80;99.90
4725;DHT22;2376;53.544;10.226;2024-02-23T13:40:51;9.80;99.90
4725;DHT22;2376;53.544;10.226;2024-02-23T13:43:18;9.80;99.90
4725;DHT22;2376;53.544;10.226;2024-02-23T13:45:49;9.80;99.90
4725;DHT22;2376;53.544;10.226;2024-02-23T13:48:16;9.90;99.90
4725;DHT22;2376;53.544;10.226;2024-02-23T13:50:44;9.80;99.90
4725;DHT22;2376;53.544;10.226;2024-02-23T13:53:12;9.80;99.90
4725;DHT22;2376;53.544;10.226;2024-02-23T13:55:39;9.70;99.00
4725;DHT22;2376;53.544;10.226;2024-02-23T13:58:08;9.60;99.90
4725;DHT22;2376;53.544;10.226;2024-02-23T14:00:34;9.60;99.90
4725;DHT22;2376;53.544;10.226;2024-02-23T14:03:01;9.60;99.90
4725;DHT22;2376;53.544;10.226;2024-02-23T14:05:28;9.50;99.90
4725;DHT22;2376;53.544;10.226;2024-02-23T14:07:55;9.50;99.90
4725;DHT22;2376;53.544;10.226;2024-02-23T14:10:23;9.50;99.90
4725;DHT22;2376;53.544;10.226;2024-02-23T14:12:49;9.40;99.90
4725;DHT22;2376;53.544;10.226;2024-02-23T14:15:17;9.40;99.90
4725;DHT22;2376;53.544;10.226;2024-02-23T14:17:43;9.40;99.90
4725;DHT22;2376;53.544;10.226;2024-02-23T14:20:10;9.30;99.90
4725;DHT22;2376;53.544;10.226;2024-02-23T14:22:38;9.30;99.90
4725;DHT22;2376;53.544;10.226;2024-02-23T14:25:06;9.30;99.90
4725;DHT22;2376;53.544;10.226;2024-02-23T14:27:34;9.30;99.90
4725;DHT22;2376;53.544;10.226;2024-02-23T14:30:01;9.30;99.90
4725;DHT22;2376;53.544;10.226;2024-02-23T14:32:28;9.30;99.90
4725;DHT22;2376;53.544;10.226;2024-02-23T14:34:55;9.40;99.90
4725;DHT22;2376;53.544;10.226;2024-02-23T14:37:22;9.20;99.90
4725;DHT22;2376;53.544;10.226;2024-02-23T14:39:49;9.30;99.90
4725;DHT22;2376;53.544;10.226;2024-02-23T14:42:17;9.30;99.90
4725;DHT22;2376;53.544;10.226;2024-02-23T14:44:45;9.40;99.90
4725;DHT22;2376;53.544;10.226;2024-02-23T14:47:12;9.50;99.90
4725;DHT22;2376;53.544;10.226;2024-02-23T14:49:39;9.60;99.90
4725;DHT22;2376;53.544;10.226;2024-02-23T14:52:06;9.60;99.90
4725;DHT22;2376;53.544;10.226;2024-02-23T14:54:33;9.60;99.90
4725;DHT22;2376;53.544;10.226;2024-02-23T14:57:00;9.70;99.90
4725;DHT22;2376;53.544;10.226;2024-02-23T14:59:26;9.80;99.90
4725;DHT22;2376;53.544;10.226;2024-02-23T15:01:54;9.80;99.90
4725;DHT22;2376;53.544;10.226;2024-02-23T15:04:21;9.90;99.90
4725;DHT22;2376;53.544;10.226;2024-02-23T15:06:48;9.80;99.90
4725;DHT22;2376;53.544;10.226;2024-02-23T15:09:15;9.70;99.90
4725;DHT22;2376;53.544;10.226;2024-02-23T15:11:42;9.80;99.90
4725;DHT22;2376;53.544;10.226;2024-02-23T15:14:08;9.90;99.90
4725;DHT22;2376;53.544;10.226;2024-02-23T15:16:36;9.80;99.90
4725;DHT22;2376;53.544;10.226;2024-02-23T15:19:05;9.80;99.90
4725;DHT22;2376;53.544;10.226;2024-02-23T15:21:32;9.80;99.90
4725;DHT22;2376;53.544;10.226;2024-02-23T15:24:05;9.80;99.90
4725;DHT22;2376;53.544;10.226;2024-02-23T15:26:32;9.80;99.90
4725;DHT22;2376;53.544;10.226;2024-02-23T15:28:58;9.90;99.90
4725;DHT22;2376;53.544;10.226;2024-02-23T15:31:25;9.90;99.90
4725;DHT22;2376;53.544;10.226;2024-02-23T15:33:52;9.80;99.90
4725;DHT22;2376;53.544;10.226;2024-02-23T15:36:20;9.70;99.90
4725;DHT22;2376;53.544;10.226;2024-02-23T15:38:47;9.80;99.90
4725;DHT22;2376;53.544;10.226;2024-02-23T15:41:14;9.80;99.90
4725;DHT22;2376;53.544;10.226;2024-02-23T15:43:44;9.80;99.90
4725;DHT22;2376;53.544;10.226;2024-02-23T15:46:11;9.70;99.90
4725;DHT22;2376;53.544;10.226;2024-02-23T15:48:37;9.80;99.90
4725;DHT22;2376;53.544;10.226;2024-02-23T15:51:04;9.80;99.90
4725;DHT22;2376;53.544;10.226;2024-02-23T15:53:33;9.70;99.90
4725;DHT22;2376;53.544;10.226;2024-02-23T15:56:00;9.60;99.90
4725;DHT22;2376;53.544;10.226;2024-02-23T15:58:27;9.50;99.90
4725;DHT22;2376;53.544;10.226;2024-02-23T16:00:53;9.50;99.90
4725;DHT22;2376;53.544;10.226;2024-02-23T16:03:21;9.50;99.90
4725;DHT22;2376;53.544;10.226;2024-02-23T16:05:48;9.60;99.90